Ampthill, United Kingdom
Current Conditions -  °F | °C
As of 10:50 AM on Friday 24 Oct 2014 (Local Time) from EGTC Reporting Station
Few Clouds Few Clouds  
Wind Chill: 57°   Ceiling: Unl
Heat Index: 57°   Visibility: 6mi
Dew Point: 57°   Wind: 10mph
Humidity: 100%   Direction: 210°SSW
Pressure: 29.94"   Gusts: NA
Location:  52.03°N, 0.5°W
Report Text: EGTC 240950Z 21009KT 9999 FEW010 14/14 Q1014
Loading
Personal Weather Stations






























Interactive Weather Map New forecast layout! Learn more

10-Day Weather Forecast

Advertisements
Track Severe Weather on mobile